sensor_id;sensor_type;location;lat;lon;timestamp;P1;durP1;ratioP1;P2;durP2;ratioP2
60370;SDS011;48550;40.588;49.684;2023-08-06T00:01:37;11.07;;;5.07;;
60370;SDS011;48550;40.588;49.684;2023-08-06T00:04:03;12.82;;;5.40;;
60370;SDS011;48550;40.588;49.684;2023-08-06T00:06:28;11.40;;;5.35;;
60370;SDS011;48550;40.588;49.684;2023-08-06T00:08:54;15.50;;;5.43;;
60370;SDS011;48550;40.588;49.684;2023-08-06T00:11:20;16.33;;;5.03;;
60370;SDS011;48550;40.588;49.684;2023-08-06T00:13:45;8.90;;;5.03;;
60370;SDS011;48550;40.588;49.684;2023-08-06T00:16:11;9.15;;;4.80;;
60370;SDS011;48550;40.588;49.684;2023-08-06T00:18:37;9.77;;;5.28;;
60370;SDS011;48550;40.588;49.684;2023-08-06T00:21:02;11.55;;;5.00;;
60370;SDS011;48550;40.588;49.684;2023-08-06T00:23:28;12.05;;;5.18;;
60370;SDS011;48550;40.588;49.684;2023-08-06T00:25:53;12.80;;;5.47;;
60370;SDS011;48550;40.588;49.684;2023-08-06T00:28:19;12.43;;;5.03;;
60370;SDS011;48550;40.588;49.684;2023-08-06T00:30:44;13.10;;;5.15;;
60370;SDS011;48550;40.588;49.684;2023-08-06T00:33:09;10.00;;;5.03;;
60370;SDS011;48550;40.588;49.684;2023-08-06T00:35:35;11.30;;;4.97;;
60370;SDS011;48550;40.588;49.684;2023-08-06T00:38:00;12.82;;;4.50;;
60370;SDS011;48550;40.588;49.684;2023-08-06T00:40:26;12.00;;;4.32;;
60370;SDS011;48550;40.588;49.684;2023-08-06T00:42:53;11.55;;;4.75;;
60370;SDS011;48550;40.588;49.684;2023-08-06T00:45:19;10.60;;;4.53;;
60370;SDS011;48550;40.588;49.684;2023-08-06T00:47:44;10.63;;;5.20;;
60370;SDS011;48550;40.588;49.684;2023-08-06T00:50:11;12.30;;;4.82;;
60370;SDS011;48550;40.588;49.684;2023-08-06T00:52:36;11.55;;;4.70;;
60370;SDS011;48550;40.588;49.684;2023-08-06T00:55:02;10.57;;;4.82;;
60370;SDS011;48550;40.588;49.684;2023-08-06T00:57:28;9.88;;;4.70;;
60370;SDS011;48550;40.588;49.684;2023-08-06T00:59:53;11.73;;;4.80;;
60370;SDS011;48550;40.588;49.684;2023-08-06T01:02:19;10.32;;;5.10;;
60370;SDS011;48550;40.588;49.684;2023-08-06T01:04:44;10.10;;;4.60;;
60370;SDS011;48550;40.588;49.684;2023-08-06T01:07:21;10.15;;;4.57;;
60370;SDS011;48550;40.588;49.684;2023-08-06T01:09:53;9.75;;;4.85;;
60370;SDS011;48550;40.588;49.684;2023-08-06T01:14:51;19.07;;;4.93;;
60370;SDS011;48550;40.588;49.684;2023-08-06T01:17:17;14.35;;;4.88;;
60370;SDS011;48550;40.588;49.684;2023-08-06T01:19:43;11.95;;;5.07;;
60370;SDS011;48550;40.588;49.684;2023-08-06T01:22:08;11.65;;;4.65;;
60370;SDS011;48550;40.588;49.684;2023-08-06T01:24:34;11.23;;;4.70;;
60370;SDS011;48550;40.588;49.684;2023-08-06T01:27:09;11.43;;;4.45;;
60370;SDS011;48550;40.588;49.684;2023-08-06T01:29:41;11.23;;;4.63;;
60370;SDS011;48550;40.588;49.684;2023-08-06T01:32:09;12.68;;;5.10;;
60370;SDS011;48550;40.588;49.684;2023-08-06T01:34:35;12.02;;;5.22;;
60370;SDS011;48550;40.588;49.684;2023-08-06T01:37:02;11.25;;;4.28;;
60370;SDS011;48550;40.588;49.684;2023-08-06T01:39:28;10.20;;;4.70;;
60370;SDS011;48550;40.588;49.684;2023-08-06T01:41:53;10.55;;;5.25;;
60370;SDS011;48550;40.588;49.684;2023-08-06T01:44:19;9.50;;;5.05;;
60370;SDS011;48550;40.588;49.684;2023-08-06T01:46:44;11.73;;;5.55;;
60370;SDS011;48550;40.588;49.684;2023-08-06T01:49:10;9.05;;;4.55;;
60370;SDS011;48550;40.588;49.684;2023-08-06T01:51:35;10.15;;;4.95;;
60370;SDS011;48550;40.588;49.684;2023-08-06T01:54:00;11.10;;;4.93;;
60370;SDS011;48550;40.588;49.684;2023-08-06T01:56:26;8.55;;;4.07;;
60370;SDS011;48550;40.588;49.684;2023-08-06T01:58:51;10.90;;;4.53;;
60370;SDS011;48550;40.588;49.684;2023-08-06T02:01:17;10.93;;;4.63;;
60370;SDS011;48550;40.588;49.684;2023-08-06T02:03:42;9.38;;;4.30;;
60370;SDS011;48550;40.588;49.684;2023-08-06T02:06:08;8.57;;;4.30;;
60370;SDS011;48550;40.588;49.684;2023-08-06T02:08:33;10.60;;;3.88;;
60370;SDS011;48550;40.588;49.684;2023-08-06T02:10:59;11.25;;;4.43;;
60370;SDS011;48550;40.588;49.684;2023-08-06T02:13:24;10.77;;;4.00;;
60370;SDS011;48550;40.588;49.684;2023-08-06T02:15:50;9.05;;;3.95;;
60370;SDS011;48550;40.588;49.684;2023-08-06T02:18:15;9.43;;;3.75;;
60370;SDS011;48550;40.588;49.684;2023-08-06T02:20:41;8.63;;;4.07;;
60370;SDS011;48550;40.588;49.684;2023-08-06T02:23:06;7.85;;;3.60;;
60370;SDS011;48550;40.588;49.684;2023-08-06T02:25:32;10.57;;;4.20;;
60370;SDS011;48550;40.588;49.684;2023-08-06T02:27:57;11.98;;;5.18;;
60370;SDS011;48550;40.588;49.684;2023-08-06T02:30:23;11.93;;;4.20;;
60370;SDS011;48550;40.588;49.684;2023-08-06T02:32:48;9.40;;;4.13;;
60370;SDS011;48550;40.588;49.684;2023-08-06T02:35:14;7.57;;;3.22;;
60370;SDS011;48550;40.588;49.684;2023-08-06T02:37:39;7.15;;;3.38;;
60370;SDS011;48550;40.588;49.684;2023-08-06T02:40:05;8.18;;;3.50;;
60370;SDS011;48550;40.588;49.684;2023-08-06T02:42:30;10.05;;;3.63;;
60370;SDS011;48550;40.588;49.684;2023-08-06T02:44:55;10.75;;;3.97;;
60370;SDS011;48550;40.588;49.684;2023-08-06T02:47:21;8.40;;;3.70;;
60370;SDS011;48550;40.588;49.684;2023-08-06T02:49:47;7.50;;;3.80;;
60370;SDS011;48550;40.588;49.684;2023-08-06T02:52:12;8.95;;;3.75;;
60370;SDS011;48550;40.588;49.684;2023-08-06T02:54:37;8.98;;;3.90;;
60370;SDS011;48550;40.588;49.684;2023-08-06T02:57:04;8.57;;;4.13;;
60370;SDS011;48550;40.588;49.684;2023-08-06T02:59:29;10.10;;;3.90;;
60370;SDS011;48550;40.588;49.684;2023-08-06T03:01:55;8.60;;;4.05;;
60370;SDS011;48550;40.588;49.684;2023-08-06T03:04:20;8.68;;;3.55;;
60370;SDS011;48550;40.588;49.684;2023-08-06T03:06:46;10.68;;;3.72;;
60370;SDS011;48550;40.588;49.684;2023-08-06T03:09:11;7.90;;;3.70;;
60370;SDS011;48550;40.588;49.684;2023-08-06T03:11:36;9.75;;;3.80;;
60370;SDS011;48550;40.588;49.684;2023-08-06T03:14:02;9.32;;;3.60;;
60370;SDS011;48550;40.588;49.684;2023-08-06T03:16:27;16.52;;;4.38;;
60370;SDS011;48550;40.588;49.684;2023-08-06T03:18:53;11.18;;;3.63;;
60370;SDS011;48550;40.588;49.684;2023-08-06T03:21:18;9.23;;;4.10;;
60370;SDS011;48550;40.588;49.684;2023-08-06T03:23:46;7.72;;;3.20;;
60370;SDS011;48550;40.588;49.684;2023-08-06T03:26:11;9.15;;;3.60;;
60370;SDS011;48550;40.588;49.684;2023-08-06T03:28:37;13.10;;;4.30;;
60370;SDS011;48550;40.588;49.684;2023-08-06T03:31:03;9.05;;;4.10;;
60370;SDS011;48550;40.588;49.684;2023-08-06T03:33:29;9.32;;;4.57;;
60370;SDS011;48550;40.588;49.684;2023-08-06T03:35:54;7.97;;;3.90;;
60370;SDS011;48550;40.588;49.684;2023-08-06T03:38:20;8.40;;;4.07;;
60370;SDS011;48550;40.588;49.684;2023-08-06T03:40:48;7.40;;;3.80;;
60370;SDS011;48550;40.588;49.684;2023-08-06T03:43:14;8.48;;;3.65;;
60370;SDS011;48550;40.588;49.684;2023-08-06T03:45:42;10.68;;;3.40;;
60370;SDS011;48550;40.588;49.684;2023-08-06T03:48:08;5.50;;;3.45;;
60370;SDS011;48550;40.588;49.684;2023-08-06T03:50:34;7.95;;;3.53;;
60370;SDS011;48550;40.588;49.684;2023-08-06T03:52:59;15.05;;;4.10;;
60370;SDS011;48550;40.588;49.684;2023-08-06T03:55:25;8.20;;;3.95;;
60370;SDS011;48550;40.588;49.684;2023-08-06T03:57:50;7.60;;;3.65;;
60370;SDS011;48550;40.588;49.684;2023-08-06T04:00:16;9.15;;;4.20;;
60370;SDS011;48550;40.588;49.684;2023-08-06T04:02:41;9.10;;;4.18;;
60370;SDS011;48550;40.588;49.684;2023-08-06T04:05:07;41.70;;;5.38;;
60370;SDS011;48550;40.588;49.684;2023-08-06T04:07:32;10.00;;;3.70;;
60370;SDS011;48550;40.588;49.684;2023-08-06T04:09:58;16.48;;;3.63;;
60370;SDS011;48550;40.588;49.684;2023-08-06T04:12:24;11.10;;;4.30;;
60370;SDS011;48550;40.588;49.684;2023-08-06T04:14:50;7.60;;;3.97;;
60370;SDS011;48550;40.588;49.684;2023-08-06T04:17:17;10.68;;;4.13;;
60370;SDS011;48550;40.588;49.684;2023-08-06T04:19:45;7.65;;;4.10;;
60370;SDS011;48550;40.588;49.684;2023-08-06T04:22:11;10.93;;;4.53;;
60370;SDS011;48550;40.588;49.684;2023-08-06T04:24:36;7.72;;;3.92;;
60370;SDS011;48550;40.588;49.684;2023-08-06T04:27:02;11.15;;;4.28;;
60370;SDS011;48550;40.588;49.684;2023-08-06T04:29:27;10.00;;;4.10;;
60370;SDS011;48550;40.588;49.684;2023-08-06T04:31:52;9.45;;;4.03;;
60370;SDS011;48550;40.588;49.684;2023-08-06T04:34:18;8.23;;;4.30;;
60370;SDS011;48550;40.588;49.684;2023-08-06T04:36:43;8.98;;;4.40;;
60370;SDS011;48550;40.588;49.684;2023-08-06T04:39:09;8.80;;;4.80;;
60370;SDS011;48550;40.588;49.684;2023-08-06T04:41:34;7.88;;;4.00;;
60370;SDS011;48550;40.588;49.684;2023-08-06T04:43:59;8.90;;;4.57;;
60370;SDS011;48550;40.588;49.684;2023-08-06T04:46:25;8.07;;;4.03;;
60370;SDS011;48550;40.588;49.684;2023-08-06T04:48:50;9.98;;;4.50;;
60370;SDS011;48550;40.588;49.684;2023-08-06T04:51:16;9.68;;;4.20;;
60370;SDS011;48550;40.588;49.684;2023-08-06T04:53:41;14.98;;;4.38;;
60370;SDS011;48550;40.588;49.684;2023-08-06T04:56:07;10.13;;;4.47;;
60370;SDS011;48550;40.588;49.684;2023-08-06T04:58:32;10.10;;;4.40;;
60370;SDS011;48550;40.588;49.684;2023-08-06T05:00:57;12.30;;;4.30;;
60370;SDS011;48550;40.588;49.684;2023-08-06T05:03:23;9.15;;;3.95;;
60370;SDS011;48550;40.588;49.684;2023-08-06T05:05:48;14.13;;;4.15;;
60370;SDS011;48550;40.588;49.684;2023-08-06T05:08:15;12.60;;;4.47;;
60370;SDS011;48550;40.588;49.684;2023-08-06T05:10:44;7.55;;;3.63;;
60370;SDS011;48550;40.588;49.684;2023-08-06T05:13:09;7.20;;;3.88;;
60370;SDS011;48550;40.588;49.684;2023-08-06T05:15:35;10.27;;;4.57;;
60370;SDS011;48550;40.588;49.684;2023-08-06T05:18:00;9.73;;;4.13;;
60370;SDS011;48550;40.588;49.684;2023-08-06T05:20:26;7.30;;;4.25;;
60370;SDS011;48550;40.588;49.684;2023-08-06T05:22:51;8.90;;;4.20;;
60370;SDS011;48550;40.588;49.684;2023-08-06T05:25:17;8.55;;;3.80;;
60370;SDS011;48550;40.588;49.684;2023-08-06T05:27:42;11.30;;;4.38;;
60370;SDS011;48550;40.588;49.684;2023-08-06T08:29:06;13.02;;;6.45;;
60370;SDS011;48550;40.588;49.684;2023-08-06T08:31:32;12.25;;;7.20;;
60370;SDS011;48550;40.588;49.684;2023-08-06T08:34:04;14.70;;;7.18;;
60370;SDS011;48550;40.588;49.684;2023-08-06T08:36:29;16.27;;;7.60;;
60370;SDS011;48550;40.588;49.684;2023-08-06T08:38:55;13.63;;;6.82;;
60370;SDS011;48550;40.588;49.684;2023-08-06T08:41:21;16.92;;;7.88;;
60370;SDS011;48550;40.588;49.684;2023-08-06T08:43:48;15.15;;;6.93;;
60370;SDS011;48550;40.588;49.684;2023-08-06T08:46:17;15.98;;;7.03;;
60370;SDS011;48550;40.588;49.684;2023-08-06T08:48:44;14.27;;;7.40;;
60370;SDS011;48550;40.588;49.684;2023-08-06T08:51:13;19.42;;;8.75;;
60370;SDS011;48550;40.588;49.684;2023-08-06T08:53:40;18.95;;;7.40;;
60370;SDS011;48550;40.588;49.684;2023-08-06T08:56:07;18.17;;;7.43;;
60370;SDS011;48550;40.588;49.684;2023-08-06T08:58:34;19.58;;;8.63;;
60370;SDS011;48550;40.588;49.684;2023-08-06T09:01:00;11.25;;;7.13;;
60370;SDS011;48550;40.588;49.684;2023-08-06T09:03:26;13.52;;;6.57;;
60370;SDS011;48550;40.588;49.684;2023-08-06T09:05:53;14.13;;;6.70;;
60370;SDS011;48550;40.588;49.684;2023-08-06T09:08:21;18.55;;;7.65;;
60370;SDS011;48550;40.588;49.684;2023-08-06T09:10:54;17.83;;;6.10;;
60370;SDS011;48550;40.588;49.684;2023-08-06T09:13:22;20.10;;;6.97;;
60370;SDS011;48550;40.588;49.684;2023-08-06T09:15:48;21.15;;;6.85;;
60370;SDS011;48550;40.588;49.684;2023-08-06T09:18:21;30.17;;;6.97;;
60370;SDS011;48550;40.588;49.684;2023-08-06T09:20:52;24.77;;;6.57;;
60370;SDS011;48550;40.588;49.684;2023-08-06T09:23:17;28.73;;;6.32;;
60370;SDS011;48550;40.588;49.684;2023-08-06T09:25:45;20.33;;;6.60;;
60370;SDS011;48550;40.588;49.684;2023-08-06T09:28:12;22.55;;;5.57;;
60370;SDS011;48550;40.588;49.684;2023-08-06T09:30:38;21.92;;;6.00;;
60370;SDS011;48550;40.588;49.684;2023-08-06T09:33:10;24.20;;;5.15;;
60370;SDS011;48550;40.588;49.684;2023-08-06T09:35:36;21.77;;;6.10;;
60370;SDS011;48550;40.588;49.684;2023-08-06T09:38:06;28.92;;;6.03;;
60370;SDS011;48550;40.588;49.684;2023-08-06T09:40:32;21.63;;;5.75;;
60370;SDS011;48550;40.588;49.684;2023-08-06T09:42:58;30.38;;;5.35;;
60370;SDS011;48550;40.588;49.684;2023-08-06T09:45:30;31.52;;;5.68;;
60370;SDS011;48550;40.588;49.684;2023-08-06T09:47:57;34.20;;;6.70;;
60370;SDS011;48550;40.588;49.684;2023-08-06T09:50:27;30.10;;;6.30;;
60370;SDS011;48550;40.588;49.684;2023-08-06T09:55:22;41.42;;;5.80;;
60370;SDS011;48550;40.588;49.684;2023-08-06T09:57:50;41.42;;;7.18;;
60370;SDS011;48550;40.588;49.684;2023-08-06T10:00:16;35.08;;;5.85;;
60370;SDS011;48550;40.588;49.684;2023-08-06T10:02:42;34.80;;;6.38;;
60370;SDS011;48550;40.588;49.684;2023-08-06T10:05:09;31.55;;;6.47;;
60370;SDS011;48550;40.588;49.684;2023-08-06T10:07:35;41.65;;;7.95;;
60370;SDS011;48550;40.588;49.684;2023-08-06T10:10:01;37.00;;;6.90;;
60370;SDS011;48550;40.588;49.684;2023-08-06T10:12:32;29.92;;;6.13;;
60370;SDS011;48550;40.588;49.684;2023-08-06T10:15:12;24.17;;;7.75;;
60370;SDS011;48550;40.588;49.684;2023-08-06T10:17:40;31.38;;;6.43;;
60370;SDS011;48550;40.588;49.684;2023-08-06T10:20:07;37.35;;;6.95;;
60370;SDS011;48550;40.588;49.684;2023-08-06T10:22:33;35.50;;;7.70;;
60370;SDS011;48550;40.588;49.684;2023-08-06T10:25:01;36.03;;;6.75;;
60370;SDS011;48550;40.588;49.684;2023-08-06T10:32:50;41.42;;;7.32;;
60370;SDS011;48550;40.588;49.684;2023-08-06T10:35:30;37.70;;;7.88;;
60370;SDS011;48550;40.588;49.684;2023-08-06T10:38:03;55.30;;;9.23;;
60370;SDS011;48550;40.588;49.684;2023-08-06T10:41:03;31.98;;;7.72;;
60370;SDS011;48550;40.588;49.684;2023-08-06T10:43:29;44.40;;;8.35;;
60370;SDS011;48550;40.588;49.684;2023-08-06T10:45:58;39.35;;;8.57;;
60370;SDS011;48550;40.588;49.684;2023-08-06T10:48:33;43.88;;;9.55;;
60370;SDS011;48550;40.588;49.684;2023-08-06T10:50:59;40.33;;;9.07;;
60370;SDS011;48550;40.588;49.684;2023-08-06T10:53:26;47.35;;;9.75;;
60370;SDS011;48550;40.588;49.684;2023-08-06T10:55:52;40.85;;;8.95;;
60370;SDS011;48550;40.588;49.684;2023-08-06T10:58:18;46.20;;;9.90;;
60370;SDS011;48550;40.588;49.684;2023-08-06T11:00:43;35.30;;;9.93;;
60370;SDS011;48550;40.588;49.684;2023-08-06T11:03:09;38.35;;;9.85;;
60370;SDS011;48550;40.588;49.684;2023-08-06T11:05:35;52.95;;;10.50;;
60370;SDS011;48550;40.588;49.684;2023-08-06T11:08:01;51.45;;;11.40;;
60370;SDS011;48550;40.588;49.684;2023-08-06T11:10:27;48.30;;;10.57;;
60370;SDS011;48550;40.588;49.684;2023-08-06T11:12:53;41.67;;;10.52;;
60370;SDS011;48550;40.588;49.684;2023-08-06T11:15:20;51.35;;;8.95;;
60370;SDS011;48550;40.588;49.684;2023-08-06T11:17:46;52.05;;;9.35;;
60370;SDS011;48550;40.588;49.684;2023-08-06T11:20:12;43.20;;;8.70;;
60370;SDS011;48550;40.588;49.684;2023-08-06T11:22:38;50.58;;;9.50;;
60370;SDS011;48550;40.588;49.684;2023-08-06T11:25:05;49.50;;;10.23;;
60370;SDS011;48550;40.588;49.684;2023-08-06T11:27:32;56.58;;;9.57;;
60370;SDS011;48550;40.588;49.684;2023-08-06T11:29:57;50.67;;;10.02;;
60370;SDS011;48550;40.588;49.684;2023-08-06T11:32:23;47.90;;;9.80;;
60370;SDS011;48550;40.588;49.684;2023-08-06T11:34:49;51.13;;;8.57;;
60370;SDS011;48550;40.588;49.684;2023-08-06T11:37:15;45.08;;;8.30;;
60370;SDS011;48550;40.588;49.684;2023-08-06T11:39:44;53.10;;;8.60;;
60370;SDS011;48550;40.588;49.684;2023-08-06T11:42:13;60.38;;;10.27;;
60370;SDS011;48550;40.588;49.684;2023-08-06T11:44:40;48.85;;;9.43;;
60370;SDS011;48550;40.588;49.684;2023-08-06T11:47:11;44.38;;;8.63;;
60370;SDS011;48550;40.588;49.684;2023-08-06T11:52:10;55.35;;;8.65;;
60370;SDS011;48550;40.588;49.684;2023-08-06T11:54:39;42.42;;;8.02;;
60370;SDS011;48550;40.588;49.684;2023-08-06T11:57:08;55.92;;;8.50;;
60370;SDS011;48550;40.588;49.684;2023-08-06T11:59:34;41.78;;;7.43;;
60370;SDS011;48550;40.588;49.684;2023-08-06T12:02:01;46.42;;;8.43;;
60370;SDS011;48550;40.588;49.684;2023-08-06T12:07:28;56.92;;;8.73;;
60370;SDS011;48550;40.588;49.684;2023-08-06T12:09:55;61.10;;;7.97;;
60370;SDS011;48550;40.588;49.684;2023-08-06T12:12:21;46.88;;;7.55;;
60370;SDS011;48550;40.588;49.684;2023-08-06T12:14:47;48.15;;;8.18;;
60370;SDS011;48550;40.588;49.684;2023-08-06T12:17:13;43.25;;;7.50;;
60370;SDS011;48550;40.588;49.684;2023-08-06T12:19:38;39.55;;;8.13;;
60370;SDS011;48550;40.588;49.684;2023-08-06T12:22:04;64.20;;;8.85;;
60370;SDS011;48550;40.588;49.684;2023-08-06T12:24:30;42.38;;;7.25;;
60370;SDS011;48550;40.588;49.684;2023-08-06T12:26:59;40.03;;;7.13;;
60370;SDS011;48550;40.588;49.684;2023-08-06T12:29:25;44.13;;;7.25;;
60370;SDS011;48550;40.588;49.684;2023-08-06T12:31:51;39.17;;;7.10;;
60370;SDS011;48550;40.588;49.684;2023-08-06T12:34:17;65.70;;;8.13;;
60370;SDS011;48550;40.588;49.684;2023-08-06T12:36:43;45.65;;;7.90;;
60370;SDS011;48550;40.588;49.684;2023-08-06T12:39:08;30.98;;;6.82;;
60370;SDS011;48550;40.588;49.684;2023-08-06T12:41:34;43.97;;;6.45;;
60370;SDS011;48550;40.588;49.684;2023-08-06T12:44:00;45.40;;;7.43;;
60370;SDS011;48550;40.588;49.684;2023-08-06T12:46:25;49.78;;;8.10;;
60370;SDS011;48550;40.588;49.684;2023-08-06T12:48:51;40.25;;;6.90;;
60370;SDS011;48550;40.588;49.684;2023-08-06T12:51:17;41.70;;;7.55;;
60370;SDS011;48550;40.588;49.684;2023-08-06T12:53:42;36.35;;;7.40;;
60370;SDS011;48550;40.588;49.684;2023-08-06T12:56:08;42.75;;;7.25;;
60370;SDS011;48550;40.588;49.684;2023-08-06T12:58:34;43.88;;;7.22;;
60370;SDS011;48550;40.588;49.684;2023-08-06T13:00:59;45.15;;;7.43;;
60370;SDS011;48550;40.588;49.684;2023-08-06T13:03:25;44.53;;;6.85;;
60370;SDS011;48550;40.588;49.684;2023-08-06T13:05:51;29.25;;;6.53;;
60370;SDS011;48550;40.588;49.684;2023-08-06T13:08:17;30.48;;;6.70;;
60370;SDS011;48550;40.588;49.684;2023-08-06T13:10:42;33.42;;;6.97;;
60370;SDS011;48550;40.588;49.684;2023-08-06T13:13:08;39.55;;;6.32;;
60370;SDS011;48550;40.588;49.684;2023-08-06T13:15:35;38.33;;;6.32;;
60370;SDS011;48550;40.588;49.684;2023-08-06T13:18:01;42.10;;;6.70;;
60370;SDS011;48550;40.588;49.684;2023-08-06T13:20:29;38.08;;;7.15;;
60370;SDS011;48550;40.588;49.684;2023-08-06T13:22:55;44.42;;;6.55;;
60370;SDS011;48550;40.588;49.684;2023-08-06T13:25:23;34.15;;;7.70;;
60370;SDS011;48550;40.588;49.684;2023-08-06T13:27:49;39.90;;;6.80;;
60370;SDS011;48550;40.588;49.684;2023-08-06T13:30:16;32.42;;;7.30;;
60370;SDS011;48550;40.588;49.684;2023-08-06T13:32:44;41.72;;;7.20;;
60370;SDS011;48550;40.588;49.684;2023-08-06T13:35:10;43.42;;;6.65;;
60370;SDS011;48550;40.588;49.684;2023-08-06T13:37:36;33.15;;;7.35;;
60370;SDS011;48550;40.588;49.684;2023-08-06T13:40:01;46.15;;;7.32;;
60370;SDS011;48550;40.588;49.684;2023-08-06T13:42:27;33.65;;;7.30;;
60370;SDS011;48550;40.588;49.684;2023-08-06T13:44:54;27.08;;;7.13;;
60370;SDS011;48550;40.588;49.684;2023-08-06T13:47:27;44.08;;;6.68;;
60370;SDS011;48550;40.588;49.684;2023-08-06T13:49:53;38.15;;;6.30;;
60370;SDS011;48550;40.588;49.684;2023-08-06T13:52:20;40.40;;;6.60;;
60370;SDS011;48550;40.588;49.684;2023-08-06T13:54:46;50.42;;;6.90;;
60370;SDS011;48550;40.588;49.684;2023-08-06T13:57:12;46.00;;;8.10;;
60370;SDS011;48550;40.588;49.684;2023-08-06T13:59:37;43.40;;;9.57;;
60370;SDS011;48550;40.588;49.684;2023-08-06T14:02:03;33.42;;;7.05;;
60370;SDS011;48550;40.588;49.684;2023-08-06T14:04:29;45.05;;;7.45;;
60370;SDS011;48550;40.588;49.684;2023-08-06T14:06:55;38.92;;;6.78;;
60370;SDS011;48550;40.588;49.684;2023-08-06T14:09:20;30.90;;;6.35;;
60370;SDS011;48550;40.588;49.684;2023-08-06T14:11:46;43.65;;;7.55;;
60370;SDS011;48550;40.588;49.684;2023-08-06T14:14:12;33.50;;;6.53;;
60370;SDS011;48550;40.588;49.684;2023-08-06T14:16:38;45.17;;;6.47;;
60370;SDS011;48550;40.588;49.684;2023-08-06T14:19:04;31.13;;;6.15;;
60370;SDS011;48550;40.588;49.684;2023-08-06T14:21:30;38.47;;;7.18;;
60370;SDS011;48550;40.588;49.684;2023-08-06T14:23:56;47.08;;;8.52;;
60370;SDS011;48550;40.588;49.684;2023-08-06T14:26:21;45.42;;;7.28;;
60370;SDS011;48550;40.588;49.684;2023-08-06T14:28:47;43.30;;;7.22;;
60370;SDS011;48550;40.588;49.684;2023-08-06T14:31:13;39.03;;;5.57;;
60370;SDS011;48550;40.588;49.684;2023-08-06T14:33:39;35.55;;;6.85;;
60370;SDS011;48550;40.588;49.684;2023-08-06T14:36:04;33.97;;;6.47;;
60370;SDS011;48550;40.588;49.684;2023-08-06T14:38:30;41.92;;;7.78;;
60370;SDS011;48550;40.588;49.684;2023-08-06T14:40:56;40.22;;;6.53;;
60370;SDS011;48550;40.588;49.684;2023-08-06T14:43:22;36.35;;;6.60;;
60370;SDS011;48550;40.588;49.684;2023-08-06T14:45:48;51.83;;;7.88;;
60370;SDS011;48550;40.588;49.684;2023-08-06T14:48:13;35.42;;;6.35;;
60370;SDS011;48550;40.588;49.684;2023-08-06T14:50:39;43.50;;;7.72;;
60370;SDS011;48550;40.588;49.684;2023-08-06T14:53:06;35.22;;;6.90;;
60370;SDS011;48550;40.588;49.684;2023-08-06T14:55:33;37.72;;;6.95;;
60370;SDS011;48550;40.588;49.684;2023-08-06T14:58:00;38.22;;;6.25;;
60370;SDS011;48550;40.588;49.684;2023-08-06T15:00:26;39.58;;;7.80;;
60370;SDS011;48550;40.588;49.684;2023-08-06T15:02:51;42.35;;;7.57;;
60370;SDS011;48550;40.588;49.684;2023-08-06T15:05:17;40.55;;;6.43;;
60370;SDS011;48550;40.588;49.684;2023-08-06T15:07:43;34.13;;;7.07;;
60370;SDS011;48550;40.588;49.684;2023-08-06T15:10:09;35.03;;;6.10;;
60370;SDS011;48550;40.588;49.684;2023-08-06T15:12:34;38.33;;;6.82;;
60370;SDS011;48550;40.588;49.684;2023-08-06T15:15:00;38.63;;;7.57;;
60370;SDS011;48550;40.588;49.684;2023-08-06T15:17:26;43.17;;;7.50;;
60370;SDS011;48550;40.588;49.684;2023-08-06T15:19:55;40.00;;;7.40;;
60370;SDS011;48550;40.588;49.684;2023-08-06T15:22:23;46.70;;;8.38;;
60370;SDS011;48550;40.588;49.684;2023-08-06T15:24:49;45.15;;;7.50;;
60370;SDS011;48550;40.588;49.684;2023-08-06T15:27:15;61.10;;;8.80;;
60370;SDS011;48550;40.588;49.684;2023-08-06T15:29:42;39.80;;;9.10;;
60370;SDS011;48550;40.588;49.684;2023-08-06T15:32:08;35.00;;;7.43;;
60370;SDS011;48550;40.588;49.684;2023-08-06T15:34:34;44.33;;;8.05;;
60370;SDS011;48550;40.588;49.684;2023-08-06T15:36:59;47.53;;;8.25;;
60370;SDS011;48550;40.588;49.684;2023-08-06T15:39:25;36.42;;;6.95;;
60370;SDS011;48550;40.588;49.684;2023-08-06T15:41:51;54.85;;;7.60;;
60370;SDS011;48550;40.588;49.684;2023-08-06T15:44:17;44.40;;;7.10;;
60370;SDS011;48550;40.588;49.684;2023-08-06T15:46:43;37.58;;;6.82;;
60370;SDS011;48550;40.588;49.684;2023-08-06T15:49:08;43.78;;;7.45;;
60370;SDS011;48550;40.588;49.684;2023-08-06T15:51:34;50.55;;;7.18;;
60370;SDS011;48550;40.588;49.684;2023-08-06T15:54:01;42.35;;;7.18;;
60370;SDS011;48550;40.588;49.684;2023-08-06T15:56:26;46.70;;;7.95;;
60370;SDS011;48550;40.588;49.684;2023-08-06T15:58:52;39.10;;;8.48;;
60370;SDS011;48550;40.588;49.684;2023-08-06T16:01:18;45.83;;;7.72;;
60370;SDS011;48550;40.588;49.684;2023-08-06T16:03:43;49.97;;;8.95;;
60370;SDS011;48550;40.588;49.684;2023-08-06T16:06:10;32.20;;;6.57;;
60370;SDS011;48550;40.588;49.684;2023-08-06T16:08:36;52.78;;;7.50;;
60370;SDS011;48550;40.588;49.684;2023-08-06T16:11:02;44.20;;;7.55;;
60370;SDS011;48550;40.588;49.684;2023-08-06T16:13:29;41.25;;;7.13;;
60370;SDS011;48550;40.588;49.684;2023-08-06T16:15:56;43.13;;;8.30;;
60370;SDS011;48550;40.588;49.684;2023-08-06T16:18:22;41.53;;;7.90;;
60370;SDS011;48550;40.588;49.684;2023-08-06T16:20:47;47.95;;;8.13;;
60370;SDS011;48550;40.588;49.684;2023-08-06T16:23:13;53.70;;;8.13;;
60370;SDS011;48550;40.588;49.684;2023-08-06T16:25:39;37.20;;;7.78;;
60370;SDS011;48550;40.588;49.684;2023-08-06T16:28:10;42.42;;;8.60;;
60370;SDS011;48550;40.588;49.684;2023-08-06T16:30:43;42.67;;;8.35;;
60370;SDS011;48550;40.588;49.684;2023-08-06T16:33:10;40.05;;;7.07;;
60370;SDS011;48550;40.588;49.684;2023-08-06T16:35:37;39.15;;;7.22;;
60370;SDS011;48550;40.588;49.684;2023-08-06T16:38:03;29.92;;;7.32;;
60370;SDS011;48550;40.588;49.684;2023-08-06T16:40:28;43.35;;;7.40;;
60370;SDS011;48550;40.588;49.684;2023-08-06T16:42:54;29.30;;;7.47;;
60370;SDS011;48550;40.588;49.684;2023-08-06T16:45:20;33.10;;;7.22;;
60370;SDS011;48550;40.588;49.684;2023-08-06T16:47:45;45.05;;;7.45;;
60370;SDS011;48550;40.588;49.684;2023-08-06T16:50:11;34.05;;;8.82;;
60370;SDS011;48550;40.588;49.684;2023-08-06T16:52:38;33.30;;;9.00;;
60370;SDS011;48550;40.588;49.684;2023-08-06T16:55:04;32.28;;;9.63;;
60370;SDS011;48550;40.588;49.684;2023-08-06T16:57:30;47.38;;;9.90;;
60370;SDS011;48550;40.588;49.684;2023-08-06T16:59:56;51.90;;;9.68;;
60370;SDS011;48550;40.588;49.684;2023-08-06T17:02:22;44.92;;;7.72;;
60370;SDS011;48550;40.588;49.684;2023-08-06T17:04:47;49.47;;;9.60;;
60370;SDS011;48550;40.588;49.684;2023-08-06T17:07:13;44.38;;;9.02;;
60370;SDS011;48550;40.588;49.684;2023-08-06T17:09:39;40.95;;;9.25;;
60370;SDS011;48550;40.588;49.684;2023-08-06T17:12:04;42.92;;;9.15;;
60370;SDS011;48550;40.588;49.684;2023-08-06T17:14:30;55.30;;;10.55;;
60370;SDS011;48550;40.588;49.684;2023-08-06T17:16:56;42.65;;;9.90;;
60370;SDS011;48550;40.588;49.684;2023-08-06T17:19:22;54.97;;;9.50;;
60370;SDS011;48550;40.588;49.684;2023-08-06T17:21:47;59.83;;;12.43;;
60370;SDS011;48550;40.588;49.684;2023-08-06T17:24:13;50.50;;;11.35;;
60370;SDS011;48550;40.588;49.684;2023-08-06T17:26:39;53.03;;;12.30;;
60370;SDS011;48550;40.588;49.684;2023-08-06T17:29:04;44.38;;;11.73;;
60370;SDS011;48550;40.588;49.684;2023-08-06T17:31:30;60.42;;;13.65;;
60370;SDS011;48550;40.588;49.684;2023-08-06T17:33:56;51.55;;;14.15;;